Delta Virtual Airport Information Service

Tampa International Airport

ICAO: KTPA Country: United States
Latitude: 27.9755 Longitude: -82.5332
Latest Arrival : DAC8869 (KATL-KTPA) Latest Departure : SWA3720 (A) (KTPA-KBWI)


WX CaptureLIVE
Data provided by noaa.gov | Fetched at 22:25:09

METAR : KTPA 240253Z VRB04KT 10SM SCT055 26/20 A3000 RMK AO2 SLP157 T02610200 51010

TAF : KTPA 240301Z 2403/2506 08006KT P6SM FEW025 BKN100 FM241500 12007KT P6SM SCT030 BKN100 FM242100 10006KT P6SM VCSH SCT050 BKN100 FM250200 07005KT P6SM FEW040 BKN100


Runway Data for KTPA
Data provided by openaviationdata.com

Runway ID Mag Var Hdg Length Elevation Surface ILS Freq ILS Id ILS Slope
9 -2 93° 6992 ft 26 ft Concrete -- -- --
18L -2 183° 8323 ft 26 ft Concrete 110.3 ITPA 3
18R -2 183° 11032 ft 26 ft Concrete 108.5 IJRT 3
27 -2 273° 6992 ft 26 ft Concrete -- -- --
36L -2 11032 ft 26 ft Concrete 108.9 IAMP 3
36R -2 8323 ft 26 ft Concrete 111.95 ITWJ 0

Tampa International Airport, United States
Use only for reference purposes



Not for navigational purposes.